| time (UTC) | temp F | wind direction | speed MPH | gust MPH | rain 1hr in | rain 24hr in | rain mn in | humidity % | barometer mb |
| 20260503043025 | 78 | 139 | 1.0 | 6.0 | 0.00 | 0.00 | 0.00 | 82 | 1015.4 |
| 20260503041524 | 78 | 153 | 1.0 | 5.0 | 0.00 | 0.00 | 0.00 | 82 | 1015.6 |
| 20260503040027 | 78 | 131 | 1.0 | 7.0 | 0.00 | 0.00 | 0.00 | 81 | 1015.5 |
| 20260503034520 | 79 | 117 | 3.0 | 9.0 | 0.00 | 0.00 | 0.00 | 80 | 1015.4 |
| 20260503033019 | 79 | 121 | 5.0 | 12.0 | 0.00 | 0.00 | 0.00 | 80 | 1015.3 |
| 20260503031516 | 80 | 146 | 6.0 | 13.0 | 0.00 | 0.00 | 0.00 | 79 | 1015.2 |
| 20260503030015 | 80 | 141 | 5.0 | 12.0 | 0.00 | 0.00 | 0.00 | 80 | 1015.1 |
| 20260503024514 | 80 | 157 | 2.0 | 9.0 | 0.00 | 0.00 | 0.00 | 80 | 1015.0 |
| 20260503023012 | 80 | 101 | 2.0 | 8.0 | 0.00 | 0.00 | 0.00 | 81 | 1014.9 |
| 20260503021511 | 80 | 140 | 5.0 | 11.0 | 0.00 | 0.00 | 0.00 | 80 | 1014.6 |
| 20260503020011 | 81 | 144 | 4.0 | 12.0 | 0.00 | 0.00 | 0.00 | 80 | 1014.4 |
| 20260503014510 | 81 | 182 | 4.0 | 10.0 | 0.00 | 0.00 | 0.00 | 81 | 1014.2 |
| 20260503013110 | 81 | 155 | 2.0 | 9.0 | 0.00 | 0.00 | 0.00 | 80 | 1013.9 |
| 20260503011508 | 81 | 110 | 7.0 | 11.0 | 0.00 | 0.00 | 0.00 | 81 | 1013.5 |
| 20260503010011 | 82 | 123 | 5.0 | 11.0 | 0.00 | 0.00 | 0.00 | 81 | 1013.4 |
| 20260503004508 | 82 | 117 | 4.0 | 11.0 | 0.00 | 0.00 | 0.00 | 80 | 1013.3 |
| 20260503003007 | 83 | 154 | 7.0 | 14.0 | 0.00 | 0.00 | 0.00 | 79 | 1013.0 |
| 20260503001512 | 83 | 158 | 9.0 | 14.0 | 0.00 | 0.00 | 0.00 | 79 | 1012.8 |
| 20260503000007 | 84 | 93 | 4.0 | 14.0 | 0.00 | 0.00 | 0.00 | 78 | 1012.4 |
| 20260502234510 | 85 | 132 | 7.0 | 16.0 | 0.00 | 0.00 | 0.00 | 77 | 1012.1 |
| 20260502233014 | 85 | 125 | 4.0 | 11.0 | 0.00 | 0.00 | 0.00 | 76 | 1011.9 |
| 20260502231508 | 86 | 134 | 7.0 | 13.0 | 0.00 | 0.00 | 0.00 | 74 | 1011.7 |
| 20260502230004 | 86 | 126 | 6.0 | 11.0 | 0.00 | 0.00 | 0.00 | 73 | 1011.5 |
| 20260502224503 | 87 | 105 | 6.0 | 12.0 | 0.00 | 0.00 | 0.00 | 72 | 1011.3 |
| 20260502223003 | 88 | 175 | 4.0 | 13.0 | 0.00 | 0.00 | 0.00 | 71 | 1011.2 |
| 20260502221502 | 88 | 135 | 6.0 | 14.0 | 0.00 | 0.00 | 0.00 | 70 | 1010.9 |
| 20260502220002 | 89 | 126 | 7.0 | 13.0 | 0.00 | 0.00 | 0.00 | 68 | 1010.9 |
| 20260502214633 | 90 | 116 | 7.0 | 15.0 | 0.00 | 0.00 | 0.00 | 66 | 1010.7 |
| 20260502213101 | 91 | 157 | 7.0 | 13.0 | 0.00 | 0.00 | 0.00 | 64 | 1010.6 |
| 20260502211606 | 91 | 130 | 7.0 | 15.0 | 0.00 | 0.00 | 0.00 | 64 | 1010.4 |
| 20260502210058 | 92 | 136 | 6.0 | 14.0 | 0.00 | 0.00 | 0.00 | 64 | 1010.4 |
| 20260502204558 | 92 | 151 | 4.0 | 17.0 | 0.00 | 0.00 | 0.00 | 63 | 1010.4 |
| 20260502203107 | 92 | 130 | 7.0 | 16.0 | 0.00 | 0.00 | 0.00 | 61 | 1010.4 |
| 20260502201606 | 92 | 88 | 8.0 | 14.0 | 0.00 | 0.00 | 0.00 | 61 | 1010.5 |
| 20260502200055 | 92 | 176 | 8.0 | 16.0 | 0.00 | 0.00 | 0.00 | 61 | 1010.8 |
| 20260502194559 | 92 | 148 | 8.0 | 18.0 | 0.00 | 0.00 | 0.00 | 60 | 1010.9 |
| 20260502193053 | 92 | 67 | 6.0 | 15.0 | 0.00 | 0.00 | 0.00 | 61 | 1010.8 |
| 20260502191551 | 92 | 158 | 7.0 | 15.0 | 0.00 | 0.00 | 0.00 | 62 | 1011.0 |
| 20260502190048 | 92 | 76 | 7.0 | 17.0 | 0.00 | 0.00 | 0.00 | 63 | 1011.2 |
| 20260502184546 | 91 | 145 | 9.0 | 20.0 | 0.00 | 0.00 | 0.00 | 62 | 1011.5 |
| 20260502183044 | 91 | 109 | 10.0 | 18.0 | 0.00 | 0.00 | 0.00 | 63 | 1011.8 |
| 20260502181540 | 91 | 128 | 11.0 | 17.0 | 0.00 | 0.00 | 0.00 | 63 | 1012.0 |
| 20260502163030 | 89 | 76 | 8.0 | 16.0 | 0.00 | 0.00 | 0.00 | 64 | 1013.7 |
| 20260502161523 | 89 | 148 | 8.0 | 18.0 | 0.00 | 0.00 | 0.00 | 65 | 1013.8 |
| 20260502151508 | 87 | 48 | 7.0 | 19.0 | 0.00 | 0.00 | 0.00 | 70 | 1014.3 |
| 20260502123029 | 80 | 117 | 6.0 | 13.0 | 0.00 | 0.00 | 0.00 | 85 | 1014.5 |
| 20260502121520 | 79 | 166 | 5.0 | 12.0 | 0.00 | 0.00 | 0.00 | 87 | 1014.6 |
| 20260502114516 | 77 | 140 | 3.0 | 13.0 | 0.00 | 0.00 | 0.00 | 90 | 1014.2 |
| 20260502113009 | 76 | 154 | 7.0 | 12.0 | 0.00 | 0.00 | 0.00 | 91 | 1014.0 |
| 20260502111504 | 75 | 103 | 7.0 | 15.0 | 0.00 | 0.00 | 0.00 | 93 | 1013.9 |
| 20260502110003 | 75 | 134 | 4.0 | 11.0 | 0.00 | 0.00 | 0.00 | 94 | 1013.4 |
| 20260502104556 | 74 | 128 | 4.0 | 9.0 | 0.00 | 0.00 | 0.00 | 96 | 1013.4 |
| 20260502103055 | 73 | 126 | 4.0 | 9.0 | 0.00 | 0.00 | 0.00 | 96 | 1013.2 |
| 20260502101613 | 73 | 112 | 3.0 | 8.0 | 0.00 | 0.00 | 0.00 | 96 | 1013.1 |
| 20260502100108 | 72 | 113 | 2.0 | 6.0 | 0.00 | 0.00 | 0.00 | 96 | 1013.0 |
| 20260502070040 | 75 | 92 | 2.0 | 7.0 | 0.00 | 0.00 | 0.00 | 94 | 1012.5 |
| 20260502064558 | 75 | 107 | 2.0 | 7.0 | 0.00 | 0.00 | 0.00 | 94 | 1012.5 |
| 20260502063035 | 75 | 89 | 2.0 | 7.0 | 0.00 | 0.00 | 0.00 | 94 | 1012.4 |
| 20260502061535 | 75 | 137 | 1.0 | 8.0 | 0.00 | 0.00 | 0.00 | 94 | 1012.4 |
| 20260502060043 | 75 | 141 | 2.0 | 7.0 | 0.00 | 0.00 | 0.00 | 94 | 1012.5 |
| 20260502054531 | 75 | 111 | 1.0 | 6.0 | 0.00 | 0.00 | 0.00 | 94 | 1012.6 |
| 20260502053029 | 75 | 143 | 2.0 | 4.0 | 0.00 | 0.00 | 0.00 | 93 | 1012.7 |
| 20260502051531 | 75 | 140 | 1.0 | 6.0 | 0.00 | 0.00 | 0.00 | 92 | 1012.9 |
| 20260502050023 | 76 | 134 | 3.0 | 9.0 | 0.00 | 0.00 | 0.00 | 92 | 1013.0 |
| 20260502044522 | 76 | 115 | 4.0 | 8.0 | 0.00 | 0.00 | 0.00 | 91 | 1013.1 |